createdAt,value
2023-04-01T00:01:18.312Z,97921.16
2023-04-01T00:03:45.806Z,97932.44
2023-04-01T00:06:18.625Z,97927.94
2023-04-01T00:08:46.373Z,97938.47
2023-04-01T00:11:14.203Z,97950.09
2023-04-01T00:13:41.124Z,97949.63
2023-04-01T00:16:19.723Z,97969.16
2023-04-01T00:18:48.004Z,97972.44
2023-04-01T00:21:14.882Z,97972.78
2023-04-01T00:23:41.822Z,97965.22
2023-04-01T00:26:08.950Z,97964.78
2023-04-01T00:28:37.820Z,97958.72
2023-04-01T00:33:58.045Z,97956.00
2023-04-01T00:36:25.310Z,97948.44
2023-04-01T00:38:52.741Z,97956.22
2023-04-01T00:41:22.055Z,97949.09
2023-04-01T00:43:52.001Z,97950.97
2023-04-01T00:46:20.992Z,97955.78
2023-04-01T00:48:52.383Z,97957.66
2023-04-01T00:51:25.004Z,97962.91
2023-04-01T00:53:55.256Z,97953.38
2023-04-01T00:57:02.775Z,97954.16
2023-04-01T00:59:47.443Z,97952.91
2023-04-01T01:02:16.380Z,97947.03
2023-04-01T01:04:43.341Z,97945.34
2023-04-01T01:07:34.960Z,97948.75
2023-04-01T01:10:27.465Z,97940.44
2023-04-01T01:13:12.339Z,97939.34
2023-04-01T01:15:51.641Z,97934.50
2023-04-01T01:18:35.610Z,97932.34
2023-04-01T01:21:24.974Z,97936.34
2023-04-01T01:24:19.481Z,97929.72
2023-04-01T01:27:07.306Z,97925.84
2023-04-01T01:29:55.692Z,97925.06
2023-04-01T01:32:44.842Z,97924.44
2023-04-01T01:35:44.339Z,97917.94
2023-04-01T01:38:19.922Z,97920.47
2023-04-01T01:40:57.625Z,97911.06
2023-04-01T01:43:31.309Z,97918.19
2023-04-01T01:46:06.714Z,97913.59
2023-04-01T01:48:36.732Z,97912.47
2023-04-01T01:51:09.453Z,97907.09
2023-04-01T01:53:37.091Z,97916.34
2023-04-01T01:56:05.275Z,97897.47
2023-04-01T01:58:43.159Z,97921.38
2023-04-01T02:01:22.140Z,97923.09
2023-04-01T02:03:51.902Z,97918.50
2023-04-01T02:06:24.016Z,97916.00
2023-04-01T02:08:58.280Z,97923.44
2023-04-01T02:11:33.742Z,97917.41
2023-04-01T02:14:01.389Z,97927.94
2023-04-01T02:16:49.024Z,97927.16
2023-04-01T02:19:18.015Z,97918.81
2023-04-01T02:21:46.211Z,97909.06
2023-04-01T02:24:16.051Z,97925.28
2023-04-01T02:26:44.074Z,97918.06
2023-04-01T02:29:13.228Z,97937.13
2023-04-01T02:31:42.865Z,97935.78
2023-04-01T02:34:10.502Z,97927.91
2023-04-01T02:36:39.368Z,97948.91
2023-04-01T02:39:07.938Z,97942.47
2023-04-01T02:41:40.764Z,97946.97
2023-04-01T02:44:09.046Z,97937.34
2023-04-01T02:46:37.419Z,97955.63
2023-04-01T02:49:06.160Z,97947.28
2023-04-01T02:51:34.060Z,97965.56
2023-04-01T02:54:01.720Z,97950.78
2023-04-01T02:56:29.392Z,97966.72
2023-04-01T02:58:57.629Z,97965.09
2023-04-01T03:01:24.592Z,97966.81
2023-04-01T03:03:52.104Z,97967.94
2023-04-01T03:06:19.646Z,97959.47
2023-04-01T03:08:47.316Z,97966.59
2023-04-01T03:11:14.669Z,97972.06
2023-04-01T03:13:42.599Z,97961.84
2023-04-01T03:16:12.067Z,97968.22
2023-04-01T03:18:38.812Z,97963.91
2023-04-01T03:21:21.013Z,97966.41
2023-04-01T03:23:48.024Z,97969.03
2023-04-01T03:26:15.910Z,97967.97
2023-04-01T03:28:43.548Z,97972.75
2023-04-01T03:31:10.413Z,97954.72
2023-04-01T03:33:48.219Z,97950.53
2023-04-01T03:36:15.628Z,97964.75
2023-04-01T03:38:42.626Z,97976.47
2023-04-01T03:41:18.129Z,97972.00
2023-04-01T03:43:45.698Z,97963.00
2023-04-01T03:46:12.703Z,97967.19
2023-04-01T03:48:39.741Z,97960.84
2023-04-01T03:51:09.867Z,97953.28
2023-04-01T03:53:37.471Z,97955.47
2023-04-01T03:56:10.032Z,97956.69
2023-04-01T03:58:38.413Z,97951.56
2023-04-01T04:01:21.663Z,97955.38
2023-04-01T04:03:53.618Z,97946.44
2023-04-01T04:06:23.601Z,97945.78
2023-04-01T04:08:50.544Z,97938.78
2023-04-01T04:11:18.335Z,97946.66
2023-04-01T04:13:45.918Z,97948.97
2023-04-01T04:16:16.964Z,97943.84
2023-04-01T04:18:48.034Z,97949.09
2023-04-01T04:21:16.521Z,97947.56
2023-04-01T04:23:44.336Z,97945.69
2023-04-01T04:26:15.316Z,97949.41
2023-04-01T04:29:07.385Z,97950.19
2023-04-01T04:31:34.951Z,97951.28
2023-04-01T04:34:02.147Z,97942.94
2023-04-01T04:36:33.087Z,97933.19
2023-04-01T04:39:00.827Z,97933.41
2023-04-01T04:41:27.910Z,97936.47
2023-04-01T04:43:56.873Z,97946.22
2023-04-01T04:46:26.313Z,97934.50
2023-04-01T04:49:02.281Z,97951.34
2023-04-01T04:51:29.231Z,97949.06
2023-04-01T04:53:56.139Z,97959.09
2023-04-01T04:56:34.120Z,97969.59
2023-04-01T04:59:06.838Z,97963.91
2023-04-01T05:01:55.082Z,97966.09
2023-04-01T05:04:22.677Z,97977.69
2023-04-01T05:06:49.560Z,97952.06
2023-04-01T05:09:17.830Z,97962.59
2023-04-01T05:11:44.973Z,97941.13
2023-04-01T05:14:16.881Z,97949.00
2023-04-01T05:16:54.677Z,97951.31
2023-04-01T05:22:18.195Z,97952.31
2023-04-01T05:24:45.047Z,97940.06
2023-04-01T05:27:13.724Z,97954.56
2023-04-01T05:29:44.144Z,97949.72
2023-04-01T05:32:28.210Z,97958.81
2023-04-01T05:34:55.518Z,97959.81
2023-04-01T05:37:22.308Z,97953.59
2023-04-01T05:39:49.194Z,97956.69
2023-04-01T05:42:16.067Z,97960.19
2023-04-01T05:44:43.665Z,97965.56
2023-04-01T05:47:28.908Z,97978.69
2023-04-01T05:49:55.785Z,97980.69
2023-04-01T05:52:22.587Z,97978.94
2023-04-01T05:54:50.117Z,97990.53
2023-04-01T05:57:18.125Z,98004.91
2023-04-01T05:59:45.569Z,97996.47
2023-04-01T06:02:12.433Z,98002.28
2023-04-01T06:04:42.867Z,97996.63
2023-04-01T06:10:18.908Z,97996.84
2023-04-01T06:13:02.047Z,98003.34
2023-04-01T06:15:52.099Z,98003.34
2023-04-01T06:18:38.006Z,98008.72
2023-04-01T06:21:24.240Z,98006.53
2023-04-01T06:24:06.504Z,98008.94
2023-04-01T06:27:01.035Z,98006.06
2023-04-01T06:29:45.591Z,98011.09
2023-04-01T06:32:46.199Z,98024.50
2023-04-01T06:35:37.168Z,98024.84
2023-04-01T06:38:28.175Z,98016.28
2023-04-01T06:41:25.196Z,98037.56
2023-04-01T06:44:09.020Z,98027.03
2023-04-01T06:47:30.608Z,98016.41
2023-04-01T06:50:25.232Z,98015.09
2023-04-01T06:53:16.221Z,98005.75
2023-04-01T06:56:08.360Z,98011.25
2023-04-01T06:59:10.750Z,98007.22
2023-04-01T07:01:42.983Z,98013.44
2023-04-01T07:04:13.015Z,98000.47
2023-04-01T07:06:48.796Z,98017.09
2023-04-01T07:09:21.884Z,98024.22
2023-04-01T07:12:33.995Z,98028.47
2023-04-01T07:15:34.280Z,98024.63
2023-04-01T07:18:12.159Z,98037.19
2023-04-01T07:20:39.820Z,98041.91
2023-04-01T07:23:34.284Z,98031.03
2023-04-01T07:26:24.481Z,98042.53
2023-04-01T07:29:02.127Z,98052.63
2023-04-01T07:31:52.052Z,98036.13
2023-04-01T07:34:26.125Z,98036.94
2023-04-01T07:37:00.886Z,98036.13
2023-04-01T07:39:46.138Z,98025.84
2023-04-01T07:42:38.664Z,98038.28
2023-04-01T07:45:20.746Z,98049.31
2023-04-01T07:48:42.201Z,98034.91
2023-04-01T07:51:15.649Z,98034.44
2023-04-01T07:54:07.003Z,98041.50
2023-04-01T07:56:44.506Z,98048.19
2023-04-01T07:59:33.049Z,98050.22
2023-04-01T08:02:13.783Z,98053.63
2023-04-01T08:05:22.520Z,98058.84
2023-04-01T08:08:07.871Z,98051.69
2023-04-01T08:11:21.572Z,98064.78
2023-04-01T08:14:10.144Z,98065.06
2023-04-01T08:17:10.815Z,98066.03
2023-04-01T08:20:03.223Z,98054.63
2023-04-01T08:22:58.395Z,98080.81
2023-04-01T08:26:18.353Z,98074.78
2023-04-01T08:29:00.433Z,98075.47
2023-04-01T08:31:45.015Z,98071.41
2023-04-01T08:34:40.423Z,98073.59
2023-04-01T08:37:17.105Z,98072.75
2023-04-01T08:39:55.429Z,98068.75
2023-04-01T08:42:50.864Z,98055.63
2023-04-01T08:45:31.797Z,98074.19
2023-04-01T08:51:32.722Z,98072.31
2023-04-01T08:54:02.645Z,98077.28
2023-04-01T08:56:35.134Z,98075.44
2023-04-01T08:59:33.504Z,98082.34
2023-04-01T09:02:47.167Z,98099.47
2023-04-01T09:05:47.540Z,98080.91
2023-04-01T09:08:40.141Z,98093.09
2023-04-01T09:11:13.877Z,98077.75
2023-04-01T09:14:41.179Z,98092.50
2023-04-01T09:17:51.907Z,98088.06
2023-04-01T09:20:48.162Z,98095.81
2023-04-01T09:23:36.861Z,98089.31
2023-04-01T09:27:05.525Z,98097.00
2023-04-01T09:29:52.649Z,98080.25
2023-04-01T09:32:57.196Z,98096.31
2023-04-01T09:35:46.837Z,98091.22
2023-04-01T09:38:16.451Z,98094.25
2023-04-01T09:40:56.684Z,98107.81
2023-04-01T09:44:28.871Z,98108.47
2023-04-01T09:47:46.079Z,98107.22
2023-04-01T09:50:26.314Z,98105.78
2023-04-01T09:53:05.723Z,98098.81
2023-04-01T09:55:57.768Z,98094.72
2023-04-01T09:59:04.864Z,98100.31
2023-04-01T10:02:19.189Z,98092.81
2023-04-01T10:05:24.081Z,98076.84
2023-04-01T10:08:36.580Z,98093.06
2023-04-01T10:11:13.627Z,98076.91
2023-04-01T10:14:02.269Z,98102.56
2023-04-01T10:16:48.149Z,98106.75
2023-04-01T10:19:27.819Z,98098.94
2023-04-01T10:22:19.668Z,98097.09
2023-04-01T10:25:09.494Z,98103.91
2023-04-01T10:28:14.066Z,98090.53
2023-04-01T10:31:11.171Z,98091.97
2023-04-01T10:33:50.676Z,98103.56
2023-04-01T10:36:41.952Z,98092.75
2023-04-01T10:39:27.665Z,98104.59
2023-04-01T10:42:40.701Z,98098.97
2023-04-01T10:45:41.595Z,98096.41
2023-04-01T10:48:33.152Z,98094.28
2023-04-01T10:51:26.650Z,98097.66
2023-04-01T10:54:03.602Z,98092.13
2023-04-01T10:57:03.741Z,98080.88
2023-04-01T10:59:49.203Z,98093.16
2023-04-01T11:03:35.739Z,98084.59
2023-04-01T11:06:58.212Z,98082.31
2023-04-01T11:09:55.675Z,98087.00
2023-04-01T11:12:59.321Z,98081.88
2023-04-01T11:15:42.173Z,98089.28
2023-04-01T11:18:14.159Z,98083.16
2023-04-01T11:20:53.143Z,98074.53
2023-04-01T11:24:04.569Z,98074.78
2023-04-01T11:27:06.135Z,98071.34
2023-04-01T11:30:00.329Z,98086.44
2023-04-01T11:32:53.930Z,98073.16
2023-04-01T11:35:49.334Z,98075.09
2023-04-01T11:38:30.104Z,98092.16
2023-04-01T11:41:12.188Z,98092.84
2023-04-01T11:44:17.790Z,98082.69
2023-04-01T11:47:03.288Z,98087.34
2023-04-01T11:49:57.648Z,98097.38
2023-04-01T11:52:41.553Z,98084.41
2023-04-01T11:55:20.520Z,98083.38
2023-04-01T11:57:59.978Z,98076.38
2023-04-01T12:01:07.326Z,98069.97
2023-04-01T12:03:56.431Z,98086.69
2023-04-01T12:06:38.620Z,98083.19
2023-04-01T12:09:26.188Z,98070.50
2023-04-01T12:12:43.181Z,98067.81
2023-04-01T12:15:37.153Z,98069.78
2023-04-01T12:18:24.101Z,98070.78
2023-04-01T12:21:28.184Z,98067.00
2023-04-01T12:24:33.407Z,98075.25
2023-04-01T12:27:06.204Z,98079.00
2023-04-01T12:29:55.284Z,98077.25
2023-04-01T12:32:47.421Z,98069.97
2023-04-01T12:35:54.495Z,98084.34
2023-04-01T12:38:40.282Z,98074.63
2023-04-01T12:41:36.955Z,98068.38
2023-04-01T12:44:06.911Z,98088.19
2023-04-01T12:46:55.608Z,98083.75
2023-04-01T12:49:53.147Z,98082.88
2023-04-01T12:52:43.057Z,98067.41
2023-04-01T12:55:34.561Z,98066.63
2023-04-01T12:58:25.647Z,98059.94
2023-04-01T13:01:18.753Z,98065.25
2023-04-01T13:04:00.661Z,98056.72
2023-04-01T13:06:53.358Z,98055.19
2023-04-01T13:09:27.192Z,98057.00
2023-04-01T13:12:29.246Z,98051.53
2023-04-01T13:15:11.595Z,98060.47
2023-04-01T13:18:07.575Z,98056.06
2023-04-01T13:20:43.759Z,98055.53
2023-04-01T13:23:32.696Z,98042.66
2023-04-01T13:26:29.603Z,98047.31
2023-04-01T13:29:19.059Z,98048.00
2023-04-01T13:32:25.608Z,98045.66
2023-04-01T13:35:25.361Z,98042.41
2023-04-01T13:37:58.523Z,98040.47
2023-04-01T13:40:33.635Z,98048.41
2023-04-01T13:43:19.622Z,98045.75
2023-04-01T13:46:23.206Z,98048.41
2023-04-01T13:48:49.998Z,98052.75
2023-04-01T13:51:38.140Z,98043.00
2023-04-01T13:54:42.855Z,98050.69
2023-04-01T13:57:34.380Z,98046.72
2023-04-01T14:00:17.980Z,98035.06
2023-04-01T14:03:21.282Z,98032.88
2023-04-01T14:06:01.597Z,98023.63
2023-04-01T14:09:02.337Z,98030.56
2023-04-01T14:11:38.076Z,98032.31
2023-04-01T14:14:31.366Z,98031.84
2023-04-01T14:17:32.957Z,98023.16
2023-04-01T14:20:11.964Z,98036.59
2023-04-01T14:23:15.954Z,98012.50
2023-04-01T14:26:02.228Z,98014.88
2023-04-01T14:28:41.859Z,98011.41
2023-04-01T14:31:30.260Z,98014.00
2023-04-01T14:34:12.139Z,98023.13
2023-04-01T14:37:03.154Z,98016.25
2023-04-01T14:39:57.416Z,98022.91
2023-04-01T14:42:50.920Z,98026.59
2023-04-01T14:45:38.019Z,98023.56
2023-04-01T14:48:24.302Z,98018.25
2023-04-01T14:50:55.574Z,98023.56
2023-04-01T14:53:23.707Z,98021.31
2023-04-01T14:55:56.467Z,98021.00
2023-04-01T14:58:26.597Z,98014.97
2023-04-01T15:01:07.403Z,98013.16
2023-04-01T15:03:38.090Z,98017.06
2023-04-01T15:06:11.635Z,98016.13
2023-04-01T15:09:02.281Z,98005.16
2023-04-01T15:12:03.323Z,98016.44
2023-04-01T15:14:56.289Z,98023.03
2023-04-01T15:17:35.830Z,98029.16
2023-04-01T15:20:27.862Z,98029.41
2023-04-01T15:23:12.857Z,98032.78
2023-04-01T15:25:40.275Z,98028.00
2023-04-01T15:28:15.904Z,98032.25
2023-04-01T15:30:48.935Z,98045.38
2023-04-01T15:33:17.640Z,98050.19
2023-04-01T15:35:44.421Z,98052.81
2023-04-01T15:38:35.231Z,98053.41
2023-04-01T15:41:18.028Z,98060.06
2023-04-01T15:43:48.221Z,98064.09
2023-04-01T15:46:39.896Z,98068.63
2023-04-01T15:49:31.444Z,98067.81
2023-04-01T15:52:27.402Z,98071.91
2023-04-01T15:55:22.213Z,98073.72
2023-04-01T15:58:39.591Z,98068.56
2023-04-01T16:01:25.131Z,98076.56
2023-04-01T16:04:27.321Z,98064.03
2023-04-01T16:07:39.580Z,98066.13
2023-04-01T16:10:40.500Z,98060.19
2023-04-01T16:13:14.208Z,98064.81
2023-04-01T16:15:55.609Z,98060.25
2023-04-01T16:18:22.888Z,98063.41
2023-04-01T16:20:52.614Z,98077.47
2023-04-01T16:23:27.687Z,98090.28
2023-04-01T16:26:31.101Z,98090.56
2023-04-01T16:29:10.339Z,98090.34
2023-04-01T16:32:20.567Z,98098.19
2023-04-01T16:34:56.199Z,98109.75
2023-04-01T16:37:56.282Z,98117.31
2023-04-01T16:40:36.562Z,98123.22
2023-04-01T16:43:15.102Z,98123.09
2023-04-01T16:45:55.599Z,98126.03
2023-04-01T16:48:46.036Z,98141.19
2023-04-01T16:51:17.230Z,98137.63
2023-04-01T16:53:51.281Z,98148.47
2023-04-01T16:56:24.562Z,98152.22
2023-04-01T16:59:11.739Z,98164.34
2023-04-01T17:02:08.215Z,98162.69
2023-04-01T17:04:46.767Z,98156.91
2023-04-01T17:07:51.307Z,98152.69
2023-04-01T17:10:43.700Z,98164.84
2023-04-01T17:13:20.217Z,98166.06
2023-04-01T17:15:59.888Z,98165.97
2023-04-01T17:19:08.073Z,98175.09
2023-04-01T17:21:50.051Z,98179.69
2023-04-01T17:24:43.610Z,98187.50
2023-04-01T17:27:39.112Z,98190.91
2023-04-01T17:30:15.673Z,98190.50
2023-04-01T17:33:02.517Z,98184.22
2023-04-01T17:35:55.901Z,98192.00
2023-04-01T17:38:39.725Z,98196.41
2023-04-01T17:41:39.479Z,98195.09
2023-04-01T17:44:44.116Z,98202.31
2023-04-01T17:47:31.294Z,98204.53
2023-04-01T17:50:22.380Z,98221.09
2023-04-01T17:53:20.226Z,98216.69
2023-04-01T17:55:59.686Z,98214.06
2023-04-01T17:58:46.747Z,98227.88
2023-04-01T18:01:32.084Z,98233.47
2023-04-01T18:04:21.662Z,98234.75
2023-04-01T18:07:36.605Z,98244.09
2023-04-01T18:10:33.108Z,98243.97
2023-04-01T18:13:34.838Z,98252.06
2023-04-01T18:16:23.141Z,98252.28
2023-04-01T18:19:24.540Z,98258.63
2023-04-01T18:21:57.639Z,98258.63
2023-04-01T18:24:37.216Z,98272.09
2023-04-01T18:27:12.851Z,98265.19
2023-04-01T18:29:53.062Z,98270.75
2023-04-01T18:32:54.046Z,98263.38
2023-04-01T18:35:42.088Z,98285.09
2023-04-01T18:38:20.771Z,98291.78
2023-04-01T18:41:20.332Z,98296.91
2023-04-01T18:44:09.037Z,98309.28
2023-04-01T18:47:15.181Z,98310.81
2023-04-01T18:50:16.805Z,98318.59
2023-04-01T18:52:45.391Z,98313.63
2023-04-01T18:55:15.792Z,98324.50
2023-04-01T18:57:51.983Z,98326.66
2023-04-01T19:00:20.068Z,98323.47
2023-04-01T19:02:59.910Z,98329.16
2023-04-01T19:05:35.436Z,98331.97
2023-04-01T19:08:37.051Z,98345.88
2023-04-01T19:11:38.619Z,98345.44
2023-04-01T19:15:00.337Z,98336.13
2023-04-01T19:17:46.098Z,98341.25
2023-04-01T19:20:19.938Z,98336.19
2023-04-01T19:23:13.324Z,98340.41
2023-04-01T19:25:56.520Z,98342.56
2023-04-01T19:29:14.166Z,98344.91
2023-04-01T19:32:00.971Z,98347.84
2023-04-01T19:34:51.395Z,98349.91
2023-04-01T19:37:57.385Z,98355.78
2023-04-01T19:40:35.917Z,98359.19
2023-04-01T19:43:23.100Z,98358.75
2023-04-01T19:45:53.466Z,98361.69
2023-04-01T19:48:40.819Z,98373.44
2023-04-01T19:51:27.842Z,98371.31
2023-04-01T19:54:11.930Z,98363.41
2023-04-01T19:57:10.064Z,98372.88
2023-04-01T19:59:51.063Z,98370.88
2023-04-01T20:02:51.585Z,98371.94
2023-04-01T20:05:23.274Z,98374.25
2023-04-01T20:08:09.803Z,98385.88
2023-04-01T20:10:47.806Z,98372.72
2023-04-01T20:13:53.694Z,98372.72
2023-04-01T20:16:22.513Z,98371.03
2023-04-01T20:18:58.340Z,98375.22
2023-04-01T20:21:32.583Z,98372.75
2023-04-01T20:24:21.307Z,98375.38
2023-04-01T20:27:33.344Z,98365.47
2023-04-01T20:30:40.086Z,98369.84
2023-04-01T20:33:21.657Z,98363.03
2023-04-01T20:36:11.406Z,98369.06
2023-04-01T20:38:48.423Z,98370.94
2023-04-01T20:41:38.675Z,98365.34
2023-04-01T20:44:13.447Z,98369.53
2023-04-01T20:46:49.345Z,98359.03
2023-04-01T20:49:42.869Z,98365.03
2023-04-01T20:52:15.977Z,98360.56
2023-04-01T20:55:04.485Z,98375.38
2023-04-01T20:58:06.977Z,98377.69
2023-04-01T21:00:56.347Z,98369.81
2023-04-01T21:03:52.941Z,98369.81
2023-04-01T21:06:43.998Z,98374.28
2023-04-01T21:09:36.419Z,98377.22
2023-04-01T21:12:52.564Z,98371.34
2023-04-01T21:15:42.037Z,98372.44
2023-04-01T21:18:36.487Z,98383.25
2023-04-01T21:21:40.461Z,98382.97
2023-04-01T21:24:15.043Z,98396.41
2023-04-01T21:26:54.345Z,98385.25
2023-04-01T21:29:27.059Z,98393.00
2023-04-01T21:32:36.905Z,98396.72
2023-04-01T21:35:09.778Z,98386.38
2023-04-01T21:37:42.577Z,98393.81
2023-04-01T21:40:43.583Z,98395.19
2023-04-01T21:43:10.431Z,98393.19
2023-04-01T21:46:01.633Z,98400.31
2023-04-01T21:48:46.612Z,98404.03
2023-04-01T21:51:53.295Z,98412.19
2023-04-01T21:54:31.895Z,98407.72
2023-04-01T21:57:37.295Z,98414.53
2023-04-01T22:00:15.026Z,98411.91
2023-04-01T22:03:04.168Z,98417.47
2023-04-01T22:05:48.629Z,98417.78
2023-04-01T22:12:17.466Z,98409.00
2023-04-01T22:14:51.153Z,98414.25
2023-04-01T22:17:37.360Z,98414.09
2023-04-01T22:20:57.817Z,98420.75
2023-04-01T22:23:34.162Z,98415.00
2023-04-01T22:26:29.429Z,98419.19
2023-04-01T22:29:32.428Z,98419.19
2023-04-01T22:32:03.824Z,98417.19
2023-04-01T22:34:51.339Z,98410.84
2023-04-01T22:37:29.259Z,98409.00
2023-04-01T22:40:36.349Z,98416.56
2023-04-01T22:43:33.681Z,98418.88
2023-04-01T22:46:20.645Z,98409.13
2023-04-01T22:48:57.231Z,98419.34
2023-04-01T22:51:39.426Z,98402.03
2023-04-01T22:54:12.615Z,98411.75
2023-04-01T22:57:05.651Z,98415.63
2023-04-01T22:59:56.612Z,98417.94
2023-04-01T23:02:51.466Z,98419.03
2023-04-01T23:05:23.271Z,98417.94
2023-04-01T23:08:04.416Z,98419.03
2023-04-01T23:10:47.066Z,98432.94
2023-04-01T23:13:23.889Z,98431.53
2023-04-01T23:15:55.569Z,98433.84
2023-04-01T23:18:43.527Z,98438.03
2023-04-01T23:21:36.366Z,98431.22
2023-04-01T23:24:25.381Z,98426.09
2023-04-01T23:27:22.499Z,98433.69
2023-04-01T23:29:49.692Z,98434.47
2023-04-01T23:32:34.388Z,98439.38
2023-04-01T23:35:01.440Z,98431.22
2023-04-01T23:37:28.377Z,98439.09
2023-04-01T23:39:58.399Z,98435.38
2023-04-01T23:42:43.288Z,98434.44
2023-04-01T23:45:18.955Z,98443.88
2023-04-01T23:47:48.348Z,98446.19
2023-04-01T23:50:23.918Z,98443.56
2023-04-01T23:52:58.818Z,98437.19
2023-04-01T23:55:29.162Z,98437.66
2023-04-01T23:58:28.767Z,98445.09
